Time;durP1;ratioP1;P1;durP2;ratioP2;P2;SDS_P1;SDS_P2;PMS_P1;PMS_P2;Temp;Humidity;BMP_temperature;BMP_pressure;BME280_temperature;BME280_humidity;BME280_pressure;Samples;Min_cycle;Max_cycle;Signal;HPM_P1;HPM_P2
2022/12/18 00:01:06;;;;;;;16.13;9.40;;;;;;;;;;5054054;28;20993;-55
2022/12/18 00:03:34;;;;;;;17.47;11.40;;;;;;;;;;5027781;28;22216;-55
2022/12/18 00:06:01;;;;;;;20.73;10.70;;;;;;;;;;5057165;28;20445;-54
2022/12/18 00:08:27;;;;;;;18.97;12.40;;;;;;;;;;5030168;28;23063;-55
2022/12/18 00:10:53;;;;;;;21.00;10.07;;;;;;;;;;5048111;28;20422;-56
2022/12/18 00:13:19;;;;;;;14.17;11.90;;;;;;;;;;5019262;28;20455;-57
2022/12/18 00:15:45;;;;;;;25.80;16.47;;;;;;;;;;5047780;28;20461;-55
2022/12/18 00:18:11;;;;;;;24.90;8.93;;;;;;;;;;5047459;28;20437;-55
2022/12/18 00:20:37;;;;;;;19.00;10.33;;;;;;;;;;5052484;28;20438;-56
2022/12/18 00:23:04;;;;;;;15.57;10.20;;;;;;;;;;5034228;28;20442;-51
2022/12/18 00:25:29;;;;;;;25.70;13.80;;;;;;;;;;5053706;28;20454;-53
2022/12/18 00:28:01;;;;;;;24.90;11.20;;;;;;;;;;5020264;28;20531;-55
2022/12/18 00:30:27;;;;;;;15.90;10.40;;;;;;;;;;5054326;28;20524;-54
2022/12/18 00:32:53;;;;;;;22.80;11.13;;;;;;;;;;5030531;28;20454;-56
2022/12/18 00:35:19;;;;;;;22.03;13.57;;;;;;;;;;5049853;28;20448;-55
2022/12/18 00:37:45;;;;;;;22.67;13.00;;;;;;;;;;5047684;28;20421;-54
2022/12/18 00:40:12;;;;;;;18.17;12.60;;;;;;;;;;5051129;28;20479;-55
2022/12/18 00:42:56;;;;;;;23.07;9.70;;;;;;;;;;5046302;28;20546;-56
2022/12/18 00:45:23;;;;;;;29.63;14.67;;;;;;;;;;5053532;28;21278;-53
2022/12/18 00:47:49;;;;;;;32.80;12.70;;;;;;;;;;5052269;28;20469;-55
2022/12/18 00:50:15;;;;;;;14.53;12.43;;;;;;;;;;5054625;28;20878;-55
2022/12/18 00:52:41;;;;;;;22.93;13.10;;;;;;;;;;5051620;28;20438;-55
2022/12/18 00:55:07;;;;;;;17.63;12.17;;;;;;;;;;5053274;28;20438;-54
2022/12/18 00:57:36;;;;;;;21.20;12.87;;;;;;;;;;5050612;28;20464;-54
2022/12/18 01:00:03;;;;;;;16.07;13.00;;;;;;;;;;5031018;28;20449;-55
2022/12/18 01:02:29;;;;;;;13.97;8.33;;;;;;;;;;5047257;28;20474;-55
2022/12/18 01:04:55;;;;;;;32.33;16.13;;;;;;;;;;5032446;28;20505;-59
2022/12/18 01:07:21;;;;;;;28.87;11.80;;;;;;;;;;5055690;28;20981;-55
2022/12/18 01:09:47;;;;;;;23.13;11.40;;;;;;;;;;5051586;28;20474;-54
2022/12/18 01:12:13;;;;;;;24.00;11.23;;;;;;;;;;5054034;28;20492;-54
2022/12/18 01:14:39;;;;;;;22.03;12.30;;;;;;;;;;5046319;28;20950;-55
2022/12/18 01:17:05;;;;;;;18.30;10.23;;;;;;;;;;5053884;28;20520;-55
2022/12/18 01:19:31;;;;;;;13.17;10.77;;;;;;;;;;5052184;28;23681;-54
2022/12/18 01:21:57;;;;;;;18.83;11.07;;;;;;;;;;5056088;28;20436;-54
2022/12/18 01:24:23;;;;;;;18.53;14.77;;;;;;;;;;5031832;28;20448;-54
2022/12/18 01:26:49;;;;;;;13.20;7.87;;;;;;;;;;5033644;28;20431;-55
2022/12/18 01:29:15;;;;;;;27.80;12.10;;;;;;;;;;5057516;28;20506;-54
2022/12/18 01:31:44;;;;;;;24.40;10.70;;;;;;;;;;5018575;28;20874;-55
2022/12/18 01:34:10;;;;;;;15.73;10.00;;;;;;;;;;5052310;28;20448;-55
2022/12/18 01:36:37;;;;;;;16.17;11.00;;;;;;;;;;5040600;28;21309;-55
2022/12/18 01:39:05;;;;;;;17.00;10.50;;;;;;;;;;5050291;28;20441;-55
2022/12/18 01:44:35;;;;;;;28.50;14.57;;;;;;;;;;5062118;28;20440;-56
2022/12/18 01:47:01;;;;;;;13.90;12.53;;;;;;;;;;5031518;28;20476;-55
2022/12/18 01:49:27;;;;;;;15.63;11.47;;;;;;;;;;5057268;28;20445;-52
2022/12/18 01:51:53;;;;;;;24.53;12.33;;;;;;;;;;5053347;28;20414;-55
2022/12/18 01:54:18;;;;;;;23.90;12.97;;;;;;;;;;5056550;28;20438;-56
2022/12/18 01:56:44;;;;;;;25.03;11.90;;;;;;;;;;5054106;28;20425;-56
2022/12/18 01:59:10;;;;;;;16.70;14.23;;;;;;;;;;5049627;28;20429;-55
2022/12/18 02:01:37;;;;;;;25.40;14.97;;;;;;;;;;5034232;28;21206;-56
2022/12/18 02:04:21;;;;;;;17.63;12.33;;;;;;;;;;5051246;28;20480;-54
2022/12/18 02:06:51;;;;;;;18.53;12.00;;;;;;;;;;5011812;28;21118;-56
2022/12/18 02:09:19;;;;;;;19.30;12.50;;;;;;;;;;5069944;28;20437;-56
2022/12/18 02:11:48;;;;;;;12.77;9.20;;;;;;;;;;5053354;28;20453;-59
2022/12/18 02:14:19;;;;;;;24.47;11.10;;;;;;;;;;5063579;28;20437;-53
2022/12/18 02:16:57;;;;;;;14.30;9.00;;;;;;;;;;5028166;28;20519;-60
2022/12/18 02:19:23;;;;;;;19.40;12.23;;;;;;;;;;5056035;28;20447;-55
2022/12/18 02:21:51;;;;;;;21.40;12.30;;;;;;;;;;5036328;28;20441;-56
2022/12/18 02:24:30;;;;;;;19.57;12.03;;;;;;;;;;5056013;28;20434;-55
2022/12/18 02:26:57;;;;;;;21.87;11.07;;;;;;;;;;5033379;28;20444;-55
2022/12/18 02:29:29;;;;;;;19.73;12.73;;;;;;;;;;5072932;28;20972;-56
2022/12/18 02:31:56;;;;;;;15.73;14.37;;;;;;;;;;5029888;28;20529;-56
2022/12/18 02:34:23;;;;;;;14.17;9.63;;;;;;;;;;5076698;28;20452;-55
2022/12/18 02:36:49;;;;;;;33.67;15.13;;;;;;;;;;5050284;28;20438;-54
2022/12/18 02:39:15;;;;;;;16.77;12.43;;;;;;;;;;5057066;28;20426;-55
2022/12/18 02:41:41;;;;;;;14.03;9.90;;;;;;;;;;5030437;28;20452;-55
2022/12/18 02:44:08;;;;;;;18.63;12.17;;;;;;;;;;5054542;28;20442;-55
2022/12/18 02:46:35;;;;;;;23.03;11.23;;;;;;;;;;5049168;28;20515;-55
2022/12/18 02:49:12;;;;;;;12.83;10.57;;;;;;;;;;5052282;28;22350;-54
2022/12/18 02:51:40;;;;;;;12.53;9.67;;;;;;;;;;5049207;28;20467;-56
2022/12/18 02:54:09;;;;;;;14.93;10.27;;;;;;;;;;5055761;28;20426;-55
2022/12/18 02:57:04;;;;;;;17.43;11.70;;;;;;;;;;5033608;28;21728;-54
2022/12/18 02:59:41;;;;;;;18.40;11.17;;;;;;;;;;5052073;28;20426;-55
2022/12/18 03:02:07;;;;;;;17.47;11.57;;;;;;;;;;5038195;28;20471;-56
2022/12/18 03:04:52;;;;;;;17.20;12.10;;;;;;;;;;5038829;28;20498;-56
2022/12/18 03:07:19;;;;;;;14.83;12.10;;;;;;;;;;5052722;28;20464;-56
2022/12/18 03:09:47;;;;;;;13.77;9.13;;;;;;;;;;5049587;28;20439;-56
2022/12/18 03:12:24;;;;;;;17.83;11.10;;;;;;;;;;5057718;28;20425;-55
2022/12/18 03:14:53;;;;;;;17.47;11.80;;;;;;;;;;5014686;28;20908;-56
2022/12/18 03:17:19;;;;;;;16.10;9.23;;;;;;;;;;5053677;28;20433;-55
2022/12/18 03:19:45;;;;;;;13.60;7.87;;;;;;;;;;5046362;28;24404;-52
2022/12/18 03:22:11;;;;;;;14.37;9.67;;;;;;;;;;5055759;28;20949;-55
2022/12/18 03:24:39;;;;;;;17.60;8.87;;;;;;;;;;5043903;28;21016;-54
2022/12/18 03:27:06;;;;;;;8.63;6.00;;;;;;;;;;5052518;28;20502;-54
2022/12/18 03:29:39;;;;;;;10.57;7.93;;;;;;;;;;5055572;28;20456;-54
2022/12/18 03:32:06;;;;;;;15.63;8.97;;;;;;;;;;5041487;28;20450;-54
2022/12/18 03:34:33;;;;;;;17.10;9.03;;;;;;;;;;5051854;28;20441;-56
2022/12/18 03:37:02;;;;;;;11.97;9.20;;;;;;;;;;5041732;28;20475;-54
2022/12/18 03:39:28;;;;;;;15.27;8.30;;;;;;;;;;5050857;28;20511;-55
2022/12/18 03:42:03;;;;;;;17.43;10.97;;;;;;;;;;5065312;28;20442;-54
2022/12/18 03:44:38;;;;;;;16.00;10.57;;;;;;;;;;5037217;28;20568;-54
2022/12/18 03:47:14;;;;;;;17.67;10.70;;;;;;;;;;5047549;28;20452;-56
2022/12/18 03:49:55;;;;;;;13.43;7.70;;;;;;;;;;5009744;28;22198;-54
2022/12/18 03:52:28;;;;;;;20.23;9.63;;;;;;;;;;5031363;28;20578;-56
2022/12/18 03:54:55;;;;;;;15.67;10.60;;;;;;;;;;5046133;28;20870;-54
2022/12/18 03:57:21;;;;;;;13.97;8.10;;;;;;;;;;5033039;28;20521;-55
2022/12/18 03:59:48;;;;;;;8.80;7.80;;;;;;;;;;5052170;28;21416;-55
2022/12/18 04:02:14;;;;;;;10.23;7.83;;;;;;;;;;5023970;28;20442;-56
2022/12/18 04:04:39;;;;;;;12.03;9.20;;;;;;;;;;5069818;28;20440;-56
2022/12/18 04:07:05;;;;;;;19.77;8.00;;;;;;;;;;5032717;28;20449;-57
2022/12/18 04:09:31;;;;;;;17.40;10.83;;;;;;;;;;5052428;28;20442;-56
2022/12/18 04:11:57;;;;;;;10.83;7.07;;;;;;;;;;5037443;28;20524;-56
2022/12/18 04:14:23;;;;;;;6.23;5.63;;;;;;;;;;5056450;28;20445;-56
2022/12/18 04:16:49;;;;;;;9.83;9.03;;;;;;;;;;5049458;28;20428;-61
2022/12/18 04:19:15;;;;;;;15.20;8.97;;;;;;;;;;5055714;28;20421;-56
2022/12/18 04:21:41;;;;;;;11.97;7.93;;;;;;;;;;5009858;28;22838;-55
2022/12/18 04:24:08;;;;;;;10.30;7.27;;;;;;;;;;5059348;28;20449;-57
2022/12/18 04:26:34;;;;;;;11.37;9.17;;;;;;;;;;5035729;28;23348;-60
2022/12/18 04:29:00;;;;;;;18.83;7.83;;;;;;;;;;5058767;28;20518;-56
2022/12/18 04:31:26;;;;;;;12.77;6.57;;;;;;;;;;5030495;28;21082;-55
2022/12/18 04:33:52;;;;;;;9.47;6.47;;;;;;;;;;5053550;28;20479;-55
2022/12/18 04:36:18;;;;;;;8.77;7.90;;;;;;;;;;5027040;28;20440;-66
2022/12/18 04:38:44;;;;;;;11.30;7.67;;;;;;;;;;5055631;28;20830;-56
2022/12/18 04:41:10;;;;;;;9.77;6.80;;;;;;;;;;5045544;28;20496;-59
2022/12/18 04:43:36;;;;;;;12.87;8.40;;;;;;;;;;5052929;28;20436;-55
2022/12/18 04:46:05;;;;;;;12.07;6.00;;;;;;;;;;5030953;28;20434;-57
2022/12/18 04:48:31;;;;;;;13.63;8.20;;;;;;;;;;5053595;28;20548;-56
2022/12/18 04:50:57;;;;;;;6.50;5.53;;;;;;;;;;5053742;28;20524;-56
2022/12/18 04:53:23;;;;;;;14.77;5.93;;;;;;;;;;5053927;28;20441;-55
2022/12/18 04:55:54;;;;;;;9.10;6.30;;;;;;;;;;5033335;28;20462;-55
2022/12/18 04:58:20;;;;;;;19.43;7.57;;;;;;;;;;5040545;28;20851;-57
2022/12/18 05:00:46;;;;;;;11.73;5.70;;;;;;;;;;5046168;28;21336;-56
2022/12/18 05:03:12;;;;;;;8.70;7.40;;;;;;;;;;5044526;28;20449;-55
2022/12/18 05:05:38;;;;;;;10.27;9.00;;;;;;;;;;5042682;28;20531;-58
2022/12/18 05:08:04;;;;;;;25.60;8.70;;;;;;;;;;5040880;28;20468;-57
2022/12/18 05:10:30;;;;;;;12.20;7.50;;;;;;;;;;5054665;28;20441;-54
2022/12/18 05:12:59;;;;;;;16.10;10.73;;;;;;;;;;5050670;28;20761;-56
2022/12/18 05:15:31;;;;;;;8.83;5.90;;;;;;;;;;5049434;28;20472;-57
2022/12/18 05:17:58;;;;;;;9.00;8.20;;;;;;;;;;5030499;28;20952;-55
2022/12/18 05:20:24;;;;;;;16.40;11.40;;;;;;;;;;5050333;28;21366;-54
2022/12/18 05:22:50;;;;;;;13.60;7.40;;;;;;;;;;5042316;28;21260;-56
2022/12/18 05:25:20;;;;;;;12.37;8.03;;;;;;;;;;5051109;28;20521;-56
2022/12/18 05:27:46;;;;;;;18.37;9.20;;;;;;;;;;5017076;28;20481;-56
2022/12/18 05:30:12;;;;;;;9.20;7.43;;;;;;;;;;5051837;28;20437;-57
2022/12/18 05:32:39;;;;;;;10.77;6.23;;;;;;;;;;5024460;28;20441;-56
2022/12/18 05:35:05;;;;;;;8.17;5.70;;;;;;;;;;5056907;28;20425;-57
2022/12/18 05:37:32;;;;;;;23.83;10.07;;;;;;;;;;5023932;28;21011;-54
2022/12/18 05:39:58;;;;;;;9.07;8.17;;;;;;;;;;5053129;28;20469;-55
2022/12/18 05:42:24;;;;;;;11.97;8.43;;;;;;;;;;5051177;28;20433;-57
2022/12/18 05:44:50;;;;;;;10.07;6.33;;;;;;;;;;5054883;28;20612;-55
2022/12/18 05:47:16;;;;;;;15.57;7.73;;;;;;;;;;5032924;28;20461;-56
2022/12/18 05:49:42;;;;;;;12.80;8.00;;;;;;;;;;5052953;28;20440;-56
2022/12/18 05:52:08;;;;;;;8.53;7.47;;;;;;;;;;5052562;28;20437;-54
2022/12/18 05:54:34;;;;;;;7.23;5.20;;;;;;;;;;5054415;28;20484;-57
2022/12/18 05:57:00;;;;;;;5.97;5.07;;;;;;;;;;5013714;28;22768;-57
2022/12/18 05:59:26;;;;;;;7.17;4.63;;;;;;;;;;5058736;28;21154;-55
2022/12/18 06:01:52;;;;;;;20.53;8.80;;;;;;;;;;5041939;28;20455;-56
2022/12/18 06:04:18;;;;;;;7.20;6.00;;;;;;;;;;5060002;28;20429;-55
2022/12/18 06:06:44;;;;;;;18.40;6.20;;;;;;;;;;5055910;28;20825;-56
2022/12/18 06:09:10;;;;;;;8.20;5.50;;;;;;;;;;5056085;28;20537;-56
2022/12/18 06:11:36;;;;;;;9.73;6.17;;;;;;;;;;5031955;28;20513;-56
2022/12/18 06:14:02;;;;;;;20.50;8.50;;;;;;;;;;5052687;28;20437;-55
2022/12/18 06:16:28;;;;;;;17.47;10.30;;;;;;;;;;5028033;28;20982;-56
2022/12/18 06:18:58;;;;;;;5.57;4.10;;;;;;;;;;5058406;28;20820;-56
2022/12/18 06:21:24;;;;;;;13.43;7.53;;;;;;;;;;5049218;28;20437;-57
2022/12/18 06:23:49;;;;;;;4.70;4.27;;;;;;;;;;5054807;28;20986;-56
2022/12/18 06:26:15;;;;;;;27.50;8.10;;;;;;;;;;5054015;28;20422;-55
2022/12/18 06:28:41;;;;;;;8.13;7.03;;;;;;;;;;5056634;28;20474;-54
2022/12/18 06:31:07;;;;;;;7.77;7.00;;;;;;;;;;5008133;28;21117;-55
2022/12/18 06:33:33;;;;;;;16.57;7.80;;;;;;;;;;5057373;28;20445;-55
2022/12/18 06:36:00;;;;;;;7.00;6.40;;;;;;;;;;5035759;28;20449;-58
2022/12/18 06:38:26;;;;;;;9.67;7.60;;;;;;;;;;5059050;28;21004;-54
2022/12/18 06:40:52;;;;;;;9.53;5.50;;;;;;;;;;5026886;28;22665;-56
2022/12/18 06:43:18;;;;;;;15.30;7.67;;;;;;;;;;5042661;28;20532;-59
2022/12/18 06:45:46;;;;;;;10.90;7.73;;;;;;;;;;5050797;28;20437;-56
2022/12/18 06:48:12;;;;;;;17.07;8.13;;;;;;;;;;5048336;28;20485;-56
2022/12/18 06:50:38;;;;;;;14.90;10.57;;;;;;;;;;5033047;28;21255;-55
2022/12/18 06:53:04;;;;;;;11.20;6.67;;;;;;;;;;5053872;28;20450;-57
2022/12/18 06:55:30;;;;;;;19.73;7.40;;;;;;;;;;5034449;28;20957;-55
2022/12/18 06:57:56;;;;;;;8.07;4.70;;;;;;;;;;5046850;28;21271;-55
2022/12/18 07:00:22;;;;;;;14.70;6.50;;;;;;;;;;5033321;28;20452;-54
2022/12/18 07:02:48;;;;;;;11.13;10.07;;;;;;;;;;5039693;28;20544;-56
2022/12/18 07:05:17;;;;;;;16.50;8.47;;;;;;;;;;5029958;28;20844;-57
2022/12/18 07:07:43;;;;;;;6.23;5.57;;;;;;;;;;5004947;28;21123;-55
2022/12/18 07:10:09;;;;;;;10.47;6.30;;;;;;;;;;5056354;28;20433;-56
2022/12/18 07:12:35;;;;;;;14.33;8.27;;;;;;;;;;5030480;28;20608;-62
2022/12/18 07:15:01;;;;;;;10.13;8.70;;;;;;;;;;5053428;28;20441;-57
2022/12/18 07:17:27;;;;;;;8.40;6.10;;;;;;;;;;5034779;28;20899;-57
2022/12/18 07:19:53;;;;;;;12.10;4.50;;;;;;;;;;5059478;28;20472;-55
2022/12/18 07:22:19;;;;;;;16.70;9.00;;;;;;;;;;5032826;28;20943;-56
2022/12/18 07:24:45;;;;;;;11.17;7.77;;;;;;;;;;5054338;28;20503;-55
2022/12/18 07:27:11;;;;;;;13.80;7.23;;;;;;;;;;5025987;28;20448;-55
2022/12/18 07:29:37;;;;;;;5.73;4.03;;;;;;;;;;5048945;28;20449;-54
2022/12/18 07:32:03;;;;;;;10.40;5.87;;;;;;;;;;5025740;28;20426;-54
2022/12/18 07:34:29;;;;;;;14.23;7.80;;;;;;;;;;5049911;28;20441;-54
2022/12/18 07:36:54;;;;;;;8.60;5.60;;;;;;;;;;5006486;28;21207;-56
2022/12/18 07:39:20;;;;;;;9.90;8.10;;;;;;;;;;5051470;28;20559;-55
2022/12/18 07:42:30;;;;;;;11.60;6.57;;;;;;;;;;5028570;28;20430;-56
2022/12/18 07:44:33;;;;;;;9.50;7.27;;;;;;;;;;5053263;28;20445;-55
2022/12/18 07:46:58;;;;;;;7.90;7.30;;;;;;;;;;5017811;28;20543;-56
2022/12/18 07:49:24;;;;;;;9.17;8.30;;;;;;;;;;5048650;28;21550;-57
2022/12/18 07:51:50;;;;;;;9.00;7.87;;;;;;;;;;5045873;28;20433;-57
2022/12/18 07:54:16;;;;;;;10.60;7.20;;;;;;;;;;5056293;28;20437;-57
2022/12/18 07:56:42;;;;;;;11.23;5.97;;;;;;;;;;5036444;28;20438;-56
2022/12/18 07:59:08;;;;;;;12.23;7.43;;;;;;;;;;5049873;28;20989;-56
2022/12/18 08:01:34;;;;;;;7.73;5.47;;;;;;;;;;5000929;28;21024;-56
2022/12/18 08:04:00;;;;;;;9.57;5.57;;;;;;;;;;5050485;28;21001;-56
2022/12/18 08:06:26;;;;;;;9.53;6.53;;;;;;;;;;5025150;28;20441;-57
2022/12/18 08:08:53;;;;;;;16.77;7.87;;;;;;;;;;5049416;28;21320;-57
2022/12/18 08:11:19;;;;;;;9.90;5.63;;;;;;;;;;5009786;28;20574;-57
2022/12/18 08:13:45;;;;;;;10.33;6.93;;;;;;;;;;5048609;28;20573;-56
2022/12/18 08:16:11;;;;;;;15.83;7.20;;;;;;;;;;5026833;28;20437;-57
2022/12/18 08:18:37;;;;;;;13.33;8.80;;;;;;;;;;5050614;28;20441;-56
2022/12/18 08:21:12;;;;;;;8.13;5.57;;;;;;;;;;5025609;28;20444;-57
2022/12/18 08:23:39;;;;;;;18.43;7.47;;;;;;;;;;5054425;28;20584;-63
2022/12/18 08:26:05;;;;;;;11.17;7.63;;;;;;;;;;5032107;28;20425;-61
2022/12/18 08:28:31;;;;;;;11.93;7.20;;;;;;;;;;5050901;28;20481;-57
2022/12/18 08:30:57;;;;;;;9.60;6.00;;;;;;;;;;5034656;28;20434;-56
2022/12/18 08:33:23;;;;;;;33.83;8.60;;;;;;;;;;5055172;28;20544;-56
2022/12/18 08:35:49;;;;;;;13.27;6.47;;;;;;;;;;5050718;28;20424;-54
2022/12/18 08:38:15;;;;;;;10.13;7.43;;;;;;;;;;5051978;28;20445;-55
2022/12/18 08:40:41;;;;;;;16.90;10.17;;;;;;;;;;5051116;28;20421;-56
2022/12/18 08:45:52;;;;;;;8.97;5.70;;;;;;;;;;5016006;28;20452;-56
2022/12/18 08:48:18;;;;;;;20.40;8.80;;;;;;;;;;5052594;28;20930;-56
2022/12/18 08:50:44;;;;;;;16.10;7.80;;;;;;;;;;5030519;28;21501;-56
2022/12/18 08:53:10;;;;;;;26.93;7.97;;;;;;;;;;5045931;28;20487;-56
2022/12/18 08:55:36;;;;;;;6.70;5.90;;;;;;;;;;5027338;28;20502;-56
2022/12/18 08:58:02;;;;;;;17.13;11.50;;;;;;;;;;5049285;28;20444;-50
2022/12/18 09:00:28;;;;;;;18.23;10.77;;;;;;;;;;5019848;28;20453;-59
2022/12/18 09:02:54;;;;;;;13.20;9.13;;;;;;;;;;5054204;28;20438;-55
2022/12/18 09:05:20;;;;;;;20.00;10.77;;;;;;;;;;5029439;28;20452;-56
2022/12/18 09:07:46;;;;;;;17.17;9.67;;;;;;;;;;5050688;28;20490;-55
2022/12/18 09:10:12;;;;;;;18.03;11.20;;;;;;;;;;5036689;28;20433;-56
2022/12/18 09:12:38;;;;;;;32.53;13.07;;;;;;;;;;5051494;28;20440;-54
2022/12/18 09:15:04;;;;;;;20.07;9.30;;;;;;;;;;5031611;28;20874;-53
2022/12/18 09:17:30;;;;;;;18.97;11.50;;;;;;;;;;5051640;28;20433;-55
2022/12/18 09:19:56;;;;;;;23.57;11.67;;;;;;;;;;5010667;28;21110;-57
2022/12/18 09:22:22;;;;;;;25.70;11.20;;;;;;;;;;5055969;28;20458;-55
2022/12/18 09:24:49;;;;;;;19.27;11.13;;;;;;;;;;5034432;28;20459;-57
2022/12/18 09:27:15;;;;;;;17.80;10.60;;;;;;;;;;5057983;28;20433;-55
2022/12/18 09:29:41;;;;;;;17.73;9.53;;;;;;;;;;5056691;28;20445;-56
2022/12/18 09:32:07;;;;;;;16.57;11.00;;;;;;;;;;5061121;28;20483;-57
2022/12/18 09:34:33;;;;;;;24.23;13.70;;;;;;;;;;5040295;28;20455;-58
2022/12/18 09:36:59;;;;;;;19.03;10.80;;;;;;;;;;5054633;28;21436;-58
2022/12/18 09:39:24;;;;;;;21.57;13.20;;;;;;;;;;5057871;28;20878;-58
2022/12/18 09:41:53;;;;;;;13.50;8.53;;;;;;;;;;5061392;28;20554;-56
2022/12/18 09:44:19;;;;;;;21.17;9.97;;;;;;;;;;5038304;28;20558;-57
2022/12/18 09:46:47;;;;;;;12.60;9.47;;;;;;;;;;5056074;28;20445;-57
2022/12/18 09:49:14;;;;;;;22.63;11.63;;;;;;;;;;5073339;28;20494;-57
2022/12/18 09:51:41;;;;;;;22.30;13.00;;;;;;;;;;5061625;28;20421;-56
2022/12/18 09:54:07;;;;;;;19.93;11.70;;;;;;;;;;5018950;28;20507;-55
2022/12/18 09:56:35;;;;;;;14.17;9.73;;;;;;;;;;5059981;28;20452;-57
2022/12/18 09:59:02;;;;;;;35.33;13.17;;;;;;;;;;5056114;28;20437;-58
2022/12/18 10:01:28;;;;;;;19.60;13.57;;;;;;;;;;5062232;28;20433;-58
2022/12/18 10:03:54;;;;;;;16.97;9.43;;;;;;;;;;5047712;28;21209;-57
2022/12/18 10:06:38;;;;;;;11.70;9.67;;;;;;;;;;5059591;28;20425;-57
2022/12/18 10:09:22;;;;;;;21.57;12.47;;;;;;;;;;5035051;28;20484;-58
2022/12/18 10:12:03;;;;;;;16.93;11.70;;;;;;;;;;5061318;28;20485;-57
2022/12/18 10:14:50;;;;;;;16.07;9.27;;;;;;;;;;5070486;28;20449;-57
2022/12/18 10:17:35;;;;;;;13.50;9.97;;;;;;;;;;5059254;28;21189;-57
2022/12/18 10:20:13;;;;;;;20.93;13.33;;;;;;;;;;5037387;28;20444;-57
2022/12/18 10:22:41;;;;;;;15.40;9.13;;;;;;;;;;5062687;28;20437;-57
2022/12/18 10:25:15;;;;;;;21.07;11.90;;;;;;;;;;5013057;28;21088;-56
2022/12/18 10:27:41;;;;;;;21.27;11.97;;;;;;;;;;5060395;28;20471;-56
2022/12/18 10:30:14;;;;;;;23.33;12.80;;;;;;;;;;5053027;28;20804;-57
2022/12/18 10:32:40;;;;;;;22.47;14.57;;;;;;;;;;5015420;28;20442;-57
2022/12/18 10:35:08;;;;;;;17.70;11.57;;;;;;;;;;5029096;28;20900;-57
2022/12/18 10:37:34;;;;;;;18.17;9.90;;;;;;;;;;5061484;28;20532;-57
2022/12/18 10:40:07;;;;;;;22.80;12.63;;;;;;;;;;5037031;28;20513;-57
2022/12/18 10:42:32;;;;;;;19.87;10.87;;;;;;;;;;5059131;28;20429;-57
2022/12/18 10:45:02;;;;;;;26.73;13.13;;;;;;;;;;5035569;28;20500;-58
2022/12/18 10:47:28;;;;;;;27.70;12.60;;;;;;;;;;5055061;28;20492;-56
2022/12/18 10:49:55;;;;;;;28.97;15.07;;;;;;;;;;5034465;28;20456;-57
2022/12/18 10:52:21;;;;;;;22.40;10.63;;;;;;;;;;5054516;28;20492;-58
2022/12/18 10:54:56;;;;;;;28.40;13.00;;;;;;;;;;5012525;28;20767;-58
2022/12/18 10:57:38;;;;;;;28.00;14.30;;;;;;;;;;5026434;28;21039;-58
2022/12/18 11:00:23;;;;;;;19.70;12.40;;;;;;;;;;5016626;28;21077;-57
2022/12/18 11:02:49;;;;;;;20.37;11.57;;;;;;;;;;4997720;28;21046;-57
2022/12/18 11:05:31;;;;;;;20.23;10.67;;;;;;;;;;5042035;28;20445;-58
2022/12/18 11:07:59;;;;;;;24.80;14.37;;;;;;;;;;5042570;28;20928;-57
2022/12/18 11:10:31;;;;;;;22.20;12.60;;;;;;;;;;5033316;28;20847;-57
2022/12/18 11:13:08;;;;;;;19.90;12.97;;;;;;;;;;5042819;28;20442;-57
2022/12/18 11:15:34;;;;;;;22.47;11.93;;;;;;;;;;5032863;28;20437;-57
2022/12/18 11:18:00;;;;;;;27.90;14.93;;;;;;;;;;5042131;28;20450;-57
2022/12/18 11:20:26;;;;;;;22.70;12.30;;;;;;;;;;5031812;28;20547;-56
2022/12/18 11:22:59;;;;;;;20.67;12.90;;;;;;;;;;5050463;28;20537;-57
2022/12/18 11:25:25;;;;;;;25.17;13.00;;;;;;;;;;5035479;28;21051;-58
2022/12/18 11:28:01;;;;;;;26.70;14.70;;;;;;;;;;5048412;28;20487;-58
2022/12/18 11:30:34;;;;;;;20.33;12.73;;;;;;;;;;5019171;28;20847;-56
2022/12/18 11:33:07;;;;;;;19.40;13.47;;;;;;;;;;5042786;28;20456;-57
2022/12/18 11:35:36;;;;;;;22.47;13.10;;;;;;;;;;5049549;28;20450;-56
2022/12/18 11:38:07;;;;;;;22.60;13.70;;;;;;;;;;5053108;28;20426;-56
2022/12/18 11:40:34;;;;;;;23.33;13.60;;;;;;;;;;5028495;28;20453;-57
2022/12/18 11:43:17;;;;;;;21.17;13.67;;;;;;;;;;5046070;28;20449;-58
2022/12/18 11:45:46;;;;;;;26.00;13.27;;;;;;;;;;5031826;28;20438;-59
2022/12/18 11:48:17;;;;;;;27.00;14.37;;;;;;;;;;5028822;28;20969;-55
2022/12/18 11:50:47;;;;;;;26.53;12.23;;;;;;;;;;5048957;28;20517;-59
2022/12/18 11:53:13;;;;;;;23.10;13.20;;;;;;;;;;5034174;28;20451;-58
2022/12/18 11:55:57;;;;;;;17.80;11.40;;;;;;;;;;5042040;28;20581;-59
2022/12/18 11:58:38;;;;;;;29.20;15.30;;;;;;;;;;5037105;28;20480;-56
2022/12/18 12:01:10;;;;;;;28.93;14.00;;;;;;;;;;5021148;28;23758;-58
2022/12/18 12:03:42;;;;;;;23.20;15.00;;;;;;;;;;5046445;28;20445;-58
2022/12/18 12:06:27;;;;;;;23.93;13.37;;;;;;;;;;5047149;28;20429;-57
2022/12/18 12:09:12;;;;;;;26.93;15.80;;;;;;;;;;5048552;28;20519;-57
2022/12/18 12:11:42;;;;;;;30.20;13.67;;;;;;;;;;5049470;28;20934;-56
2022/12/18 12:14:21;;;;;;;24.13;13.70;;;;;;;;;;5051128;28;20449;-56
2022/12/18 12:16:47;;;;;;;27.30;13.53;;;;;;;;;;5030030;28;20437;-56
2022/12/18 12:19:25;;;;;;;20.53;13.57;;;;;;;;;;5053818;28;20471;-56
2022/12/18 12:21:54;;;;;;;24.00;13.47;;;;;;;;;;5032730;28;20436;-56
2022/12/18 12:24:38;;;;;;;35.10;14.90;;;;;;;;;;5054067;28;20426;-56
2022/12/18 12:27:12;;;;;;;27.90;13.13;;;;;;;;;;5056603;28;20421;-56
2022/12/18 12:29:50;;;;;;;21.47;12.27;;;;;;;;;;5053910;28;20523;-56
2022/12/18 12:32:16;;;;;;;22.20;12.10;;;;;;;;;;5031689;28;20448;-56
2022/12/18 12:34:49;;;;;;;26.80;14.23;;;;;;;;;;5057324;28;20429;-56
2022/12/18 12:37:15;;;;;;;28.50;13.67;;;;;;;;;;5019178;28;20425;-56
2022/12/18 12:39:41;;;;;;;30.37;14.57;;;;;;;;;;5066093;28;21052;-55
2022/12/18 12:44:56;;;;;;;26.57;15.10;;;;;;;;;;5056343;28;20582;-56
2022/12/18 12:47:33;;;;;;;25.60;14.23;;;;;;;;;;5031200;28;20530;-55
2022/12/18 12:49:59;;;;;;;25.90;12.50;;;;;;;;;;5076515;28;20439;-56
2022/12/18 12:52:39;;;;;;;19.73;14.10;;;;;;;;;;5054060;28;21111;-56
2022/12/18 12:55:05;;;;;;;30.77;13.70;;;;;;;;;;5055443;28;20452;-56
2022/12/18 12:57:34;;;;;;;24.60;13.63;;;;;;;;;;5021725;28;20445;-56
2022/12/18 13:00:03;;;;;;;23.87;11.80;;;;;;;;;;5056138;28;20437;-57
2022/12/18 13:02:29;;;;;;;23.47;13.47;;;;;;;;;;5027302;28;20435;-56
2022/12/18 13:05:03;;;;;;;24.83;13.33;;;;;;;;;;5058337;28;20425;-56
2022/12/18 13:07:35;;;;;;;36.30;15.03;;;;;;;;;;5014067;28;20464;-53
2022/12/18 13:10:13;;;;;;;22.17;13.77;;;;;;;;;;5032678;28;20537;-54
2022/12/18 13:13:15;;;;;;;24.57;15.03;;;;;;;;;;5053961;28;20437;-55
2022/12/18 13:15:45;;;;;;;26.23;13.37;;;;;;;;;;5044540;28;20575;-55
2022/12/18 13:18:11;;;;;;;26.03;13.10;;;;;;;;;;5036673;28;21758;-56
2022/12/18 13:20:38;;;;;;;22.20;12.43;;;;;;;;;;5052934;28;20441;-56
2022/12/18 13:23:27;;;;;;;23.87;14.57;;;;;;;;;;5053833;28;21011;-55
2022/12/18 13:25:54;;;;;;;21.50;13.37;;;;;;;;;;5047314;28;20441;-54
2022/12/18 13:28:24;;;;;;;18.90;11.87;;;;;;;;;;5031575;28;21231;-54
2022/12/18 13:30:54;;;;;;;29.07;15.83;;;;;;;;;;5061101;28;20516;-54
2022/12/18 13:33:23;;;;;;;24.50;13.73;;;;;;;;;;5036858;28;20433;-55
2022/12/18 13:36:12;;;;;;;24.73;11.90;;;;;;;;;;5062430;28;20429;-55
2022/12/18 13:38:38;;;;;;;27.73;12.63;;;;;;;;;;5024193;28;20927;-56
2022/12/18 13:41:04;;;;;;;29.60;13.83;;;;;;;;;;5062801;28;20502;-55
2022/12/18 13:43:32;;;;;;;26.93;13.57;;;;;;;;;;5038226;28;20777;-55
2022/12/18 13:46:01;;;;;;;27.27;11.00;;;;;;;;;;5070793;28;21020;-55
2022/12/18 14:31:45;;;;;;;18.50;13.50;;;;;;;;;;4967346;28;20535;-56
2022/12/18 14:34:17;;;;;;;17.83;10.87;;;;;;;;;;4987242;28;20723;-56
2022/12/18 14:36:51;;;;;;;20.13;11.20;;;;;;;;;;5034063;28;20518;-54
2022/12/18 14:39:17;;;;;;;17.60;10.10;;;;;;;;;;5040033;28;20482;-56
2022/12/18 14:41:43;;;;;;;29.20;12.77;;;;;;;;;;5062413;28;20429;-56
2022/12/18 14:44:11;;;;;;;29.20;14.87;;;;;;;;;;5010231;28;20449;-55
2022/12/18 14:46:38;;;;;;;23.27;13.60;;;;;;;;;;5041380;28;21180;-56
2022/12/18 14:49:05;;;;;;;20.87;9.93;;;;;;;;;;5059840;28;20559;-55
2022/12/18 14:51:31;;;;;;;19.43;11.13;;;;;;;;;;5029980;28;20425;-55
2022/12/18 14:54:04;;;;;;;19.13;12.67;;;;;;;;;;5059872;28;20873;-54
2022/12/18 14:56:31;;;;;;;20.60;11.37;;;;;;;;;;5030217;28;20441;-54
2022/12/18 14:59:01;;;;;;;29.30;13.13;;;;;;;;;;5056514;28;21118;-57
2022/12/18 15:01:28;;;;;;;25.03;12.10;;;;;;;;;;5028939;28;20437;-55
2022/12/18 15:03:54;;;;;;;23.77;13.63;;;;;;;;;;5059359;28;20533;-55
2022/12/18 15:06:26;;;;;;;24.43;15.40;;;;;;;;;;5026515;28;20452;-54
2022/12/18 15:08:52;;;;;;;19.33;12.00;;;;;;;;;;5061103;28;20477;-56
2022/12/18 15:11:25;;;;;;;25.23;13.00;;;;;;;;;;5036395;28;20445;-55
2022/12/18 15:13:51;;;;;;;31.43;14.00;;;;;;;;;;5056403;28;20465;-56
2022/12/18 15:16:18;;;;;;;27.90;15.70;;;;;;;;;;5011193;28;21648;-58
2022/12/18 15:18:45;;;;;;;27.77;15.67;;;;;;;;;;5054383;28;20445;-56
2022/12/18 15:21:11;;;;;;;23.37;13.60;;;;;;;;;;5055451;28;20445;-55
2022/12/18 15:23:50;;;;;;;24.73;14.07;;;;;;;;;;5052072;28;20947;-56